createdAt,value
2018-07-16T00:00:21.523Z,93.20
2018-07-16T00:02:50.224Z,93.40
2018-07-16T00:05:18.708Z,93.60
2018-07-16T00:07:47.405Z,93.70
2018-07-16T00:10:16.205Z,94.00
2018-07-16T00:15:13.631Z,94.20
2018-07-16T00:17:41.926Z,94.30
2018-07-16T00:20:10.229Z,94.40
2018-07-16T00:22:38.626Z,94.50
2018-07-16T00:25:07.332Z,94.70
2018-07-16T00:27:35.852Z,94.80
2018-07-16T00:30:04.537Z,94.90
2018-07-16T00:32:33.036Z,95.10
2018-07-16T00:35:01.373Z,95.20
2018-07-16T00:37:31.909Z,95.40
2018-07-16T00:40:00.495Z,95.40
2018-07-16T00:42:28.993Z,95.50
2018-07-16T00:44:57.610Z,95.60
2018-07-16T00:47:26.218Z,95.80
2018-07-16T00:49:54.629Z,95.90
2018-07-16T00:52:22.887Z,95.90
2018-07-16T00:57:19.077Z,96.00
2018-07-16T00:59:47.867Z,96.10
2018-07-16T01:02:16.189Z,96.00
2018-07-16T01:04:44.691Z,96.00
2018-07-16T01:07:12.963Z,96.10
2018-07-16T01:09:41.807Z,96.20
2018-07-16T01:12:10.303Z,96.40
2018-07-16T01:14:38.592Z,96.60
2018-07-16T01:17:07.312Z,96.60
2018-07-16T01:19:35.931Z,96.50
2018-07-16T01:22:04.344Z,96.40
2018-07-16T01:24:32.687Z,96.40
2018-07-16T01:29:29.177Z,96.50
2018-07-16T01:34:25.485Z,96.50
2018-07-16T01:36:53.877Z,96.50
2018-07-16T01:41:50.257Z,96.60
2018-07-16T01:46:46.868Z,96.50
2018-07-16T01:49:16.290Z,96.50
2018-07-16T01:51:44.694Z,96.50
2018-07-16T01:54:13.053Z,96.50
2018-07-16T01:56:41.394Z,96.70
2018-07-16T01:59:09.565Z,96.70
2018-07-16T02:04:06.893Z,96.80
2018-07-16T02:11:32.299Z,96.70
2018-07-16T02:14:00.901Z,97.20
2018-07-16T02:16:29.507Z,97.80
2018-07-16T02:18:58.004Z,97.50
2018-07-16T02:21:26.314Z,97.30
2018-07-16T02:23:54.537Z,97.20
2018-07-16T02:26:22.905Z,97.10
2018-07-16T02:28:51.187Z,97.30
2018-07-16T02:31:19.780Z,97.40
2018-07-16T02:36:16.400Z,97.60
2018-07-16T02:38:44.788Z,97.70
2018-07-16T02:41:13.091Z,97.80
2018-07-16T02:43:41.271Z,97.90
2018-07-16T02:46:09.798Z,98.00
2018-07-16T02:48:38.065Z,98.10
2018-07-16T02:53:34.511Z,98.30
2018-07-16T02:56:02.987Z,98.40
2018-07-16T02:58:31.382Z,98.50
2018-07-16T03:01:02.025Z,98.60
2018-07-16T03:03:30.939Z,98.70
2018-07-16T03:05:59.351Z,98.80
2018-07-16T03:08:27.736Z,98.90
2018-07-16T03:10:56.204Z,99.00
2018-07-16T03:13:24.436Z,99.10
2018-07-16T03:15:52.619Z,99.20
2018-07-16T03:18:21.132Z,99.20
2018-07-16T03:20:49.660Z,99.30
2018-07-16T03:23:18.033Z,99.40
2018-07-16T03:25:46.314Z,99.50
2018-07-16T03:30:43.515Z,99.60
2018-07-16T03:33:12.040Z,99.70
2018-07-16T03:35:40.309Z,99.80
2018-07-16T03:38:08.603Z,99.90
2018-07-16T03:40:37.035Z,99.90
2018-07-16T03:43:05.442Z,99.90
2018-07-16T03:45:33.933Z,99.90
2018-07-16T03:48:02.231Z,99.90
2018-07-16T03:50:30.424Z,99.90
2018-07-16T03:57:55.202Z,99.80
2018-07-16T04:00:23.716Z,99.80
2018-07-16T04:02:52.218Z,99.70
2018-07-16T04:05:21.757Z,99.60
2018-07-16T04:07:50.250Z,99.50
2018-07-16T04:10:18.648Z,99.40
2018-07-16T04:12:46.930Z,99.60
2018-07-16T04:20:12.342Z,99.80
2018-07-16T04:22:40.628Z,99.60
2018-07-16T04:27:36.915Z,99.60
2018-07-16T04:32:33.333Z,99.50
2018-07-16T04:35:02.023Z,99.60
2018-07-16T04:37:30.295Z,99.80
2018-07-16T04:39:58.917Z,99.90
2018-07-16T04:42:27.775Z,99.90
2018-07-16T04:44:56.127Z,99.90
2018-07-16T04:49:52.815Z,99.90
2018-07-16T04:54:49.190Z,99.90
2018-07-16T04:57:17.688Z,99.90
2018-07-16T04:59:46.212Z,99.90
2018-07-16T05:04:42.559Z,99.90
2018-07-16T05:07:11.958Z,99.90
2018-07-16T05:09:41.099Z,99.90
2018-07-16T05:12:09.553Z,99.90
2018-07-16T05:14:37.851Z,99.90
2018-07-16T05:17:06.449Z,99.90
2018-07-16T05:22:02.845Z,99.90
2018-07-16T05:24:31.355Z,99.90
2018-07-16T05:26:59.914Z,99.90
2018-07-16T05:29:28.346Z,99.90
2018-07-16T05:31:56.927Z,99.90
2018-07-16T05:34:25.566Z,99.90
2018-07-16T05:36:53.873Z,99.90
2018-07-16T05:39:22.595Z,99.90
2018-07-16T05:41:51.080Z,99.90
2018-07-16T05:44:19.659Z,99.90
2018-07-16T05:49:16.476Z,99.90
2018-07-16T05:51:45.182Z,99.90
2018-07-16T05:54:13.370Z,99.80
2018-07-16T05:56:41.878Z,99.70
2018-07-16T05:59:10.388Z,99.70
2018-07-16T06:01:38.678Z,99.70
2018-07-16T06:04:07.258Z,99.90
2018-07-16T06:06:35.460Z,99.90
2018-07-16T06:09:04.567Z,99.90
2018-07-16T06:14:00.972Z,99.90
2018-07-16T06:18:57.278Z,99.90
2018-07-16T06:21:26.697Z,99.90
2018-07-16T06:23:55.119Z,99.90
2018-07-16T06:26:23.591Z,99.90
2018-07-16T06:28:53.113Z,99.40
2018-07-16T06:31:21.495Z,98.90
2018-07-16T06:33:49.817Z,98.70
2018-07-16T06:36:20.571Z,98.10
2018-07-16T06:38:48.885Z,97.50
2018-07-16T06:41:17.910Z,97.60
2018-07-16T06:43:45.847Z,98.00
2018-07-16T06:46:14.043Z,97.80
2018-07-16T06:51:10.645Z,98.10
2018-07-16T06:53:40.461Z,97.30
2018-07-16T06:56:08.764Z,97.60
2018-07-16T06:58:37.102Z,98.00
2018-07-16T07:01:05.584Z,97.90
2018-07-16T07:03:33.888Z,98.10
2018-07-16T07:06:02.774Z,98.50
2018-07-16T07:08:31.689Z,98.70
2018-07-16T07:11:00.112Z,98.70
2018-07-16T07:13:28.408Z,98.70
2018-07-16T07:15:56.839Z,98.30
2018-07-16T07:18:25.040Z,98.10
2018-07-16T07:20:53.314Z,97.80
2018-07-16T07:23:21.777Z,97.20
2018-07-16T07:25:50.138Z,97.10
2018-07-16T07:28:19.418Z,96.40
2018-07-16T07:30:47.619Z,96.20
2018-07-16T07:33:16.088Z,96.20
2018-07-16T07:35:44.568Z,96.30
2018-07-16T07:38:13.507Z,96.10
2018-07-16T07:40:41.817Z,95.90
2018-07-16T07:45:38.367Z,95.20
2018-07-16T07:48:06.815Z,94.30
2018-07-16T07:50:35.431Z,95.10
2018-07-16T07:53:03.780Z,95.00
2018-07-16T07:55:31.953Z,94.80
2018-07-16T07:58:00.418Z,94.40
2018-07-16T08:00:28.808Z,94.10
2018-07-16T08:02:57.186Z,93.70
2018-07-16T08:05:25.598Z,94.20
2018-07-16T08:10:22.837Z,94.60
2018-07-16T08:12:51.511Z,95.00
2018-07-16T08:15:20.120Z,95.50
2018-07-16T08:17:48.740Z,95.70
2018-07-16T08:20:17.235Z,95.80
2018-07-16T08:22:45.516Z,95.70
2018-07-16T08:27:41.891Z,95.00
2018-07-16T08:30:10.203Z,94.70
2018-07-16T08:35:06.903Z,93.40
2018-07-16T08:37:35.207Z,92.80
2018-07-16T08:42:32.129Z,92.00
2018-07-16T08:45:00.591Z,91.40
2018-07-16T08:49:57.337Z,90.40
2018-07-16T08:52:25.833Z,90.40
2018-07-16T08:54:54.326Z,84.20
2018-07-16T08:57:22.698Z,78.80
2018-07-16T08:59:51.130Z,73.90
2018-07-16T09:02:19.406Z,71.60
2018-07-16T09:07:15.906Z,78.20
2018-07-16T09:09:44.211Z,79.10
2018-07-16T09:12:12.698Z,79.00
2018-07-16T09:17:09.403Z,69.90
2018-07-16T09:19:37.731Z,63.30
2018-07-16T09:22:06.203Z,59.90
2018-07-16T09:27:03.521Z,56.40
2018-07-16T09:29:31.819Z,55.50
2018-07-16T09:32:00.355Z,55.30
2018-07-16T09:34:28.725Z,53.90
2018-07-16T09:36:57.324Z,54.20
2018-07-16T09:39:25.922Z,54.20
2018-07-16T09:44:22.145Z,53.50
2018-07-16T09:49:19.698Z,53.80
2018-07-16T09:51:48.109Z,53.30
2018-07-16T09:54:16.592Z,53.40
2018-07-16T09:56:45.229Z,51.40
2018-07-16T10:01:49.033Z,52.30
2018-07-16T10:04:17.367Z,51.10
2018-07-16T10:06:45.640Z,50.40
2018-07-16T10:09:13.987Z,50.00
2018-07-16T10:11:42.603Z,50.10
2018-07-16T10:14:11.603Z,48.20
2018-07-16T10:16:40.000Z,47.30
2018-07-16T10:19:08.652Z,48.60
2018-07-16T10:21:37.008Z,48.80
2018-07-16T10:24:05.627Z,49.30
2018-07-16T10:26:34.029Z,48.90
2018-07-16T10:29:02.279Z,48.30
2018-07-16T10:31:30.588Z,49.60
2018-07-16T10:36:27.279Z,50.10
2018-07-16T10:38:55.813Z,48.70
2018-07-16T10:41:24.711Z,48.90
2018-07-16T10:43:53.012Z,50.70
2018-07-16T10:46:21.419Z,50.70
2018-07-16T10:48:49.914Z,50.40
2018-07-16T10:51:18.622Z,50.70
2018-07-16T10:53:46.912Z,48.90
2018-07-16T10:58:44.554Z,51.10
2018-07-16T11:01:13.116Z,50.90
2018-07-16T11:03:41.488Z,50.00
2018-07-16T11:06:15.538Z,50.00
2018-07-16T11:08:43.903Z,48.60
2018-07-16T11:11:12.256Z,49.50
2018-07-16T11:13:40.564Z,49.60
2018-07-16T11:16:08.866Z,49.10
2018-07-16T11:18:37.377Z,48.60
2018-07-16T11:21:05.870Z,48.80
2018-07-16T11:23:34.492Z,49.10
2018-07-16T11:26:02.965Z,49.70
2018-07-16T11:28:31.384Z,49.60
2018-07-16T11:31:00.459Z,49.70
2018-07-16T11:33:28.880Z,49.70
2018-07-16T11:35:57.418Z,49.10
2018-07-16T11:38:25.561Z,49.40
2018-07-16T11:43:21.760Z,48.20
2018-07-16T11:48:18.644Z,48.30
2018-07-16T11:50:47.212Z,48.90
2018-07-16T11:53:15.666Z,49.50
2018-07-16T11:55:44.106Z,48.70
2018-07-16T11:58:12.388Z,48.80
2018-07-16T12:00:40.872Z,47.50
2018-07-16T12:03:09.464Z,48.40
2018-07-16T12:08:06.469Z,47.90
2018-07-16T12:10:35.295Z,48.10
2018-07-16T12:13:04.765Z,48.70
2018-07-16T12:15:33.073Z,48.60
2018-07-16T12:18:01.391Z,47.60
2018-07-16T12:22:57.999Z,47.20
2018-07-16T12:25:26.383Z,47.70
2018-07-16T12:32:51.330Z,48.00
2018-07-16T12:35:19.927Z,46.70
2018-07-16T12:37:48.274Z,47.60
2018-07-16T12:40:16.565Z,46.70
2018-07-16T12:42:44.990Z,47.40
2018-07-16T12:45:13.701Z,47.40
2018-07-16T12:47:42.097Z,47.50
2018-07-16T12:50:10.430Z,46.90
2018-07-16T12:52:38.908Z,47.10
2018-07-16T12:55:07.296Z,45.10
2018-07-16T12:57:35.720Z,44.40
2018-07-16T13:00:05.460Z,44.60
2018-07-16T13:02:33.928Z,44.70
2018-07-16T13:05:02.372Z,44.40
2018-07-16T13:07:30.726Z,44.70
2018-07-16T13:09:59.346Z,43.80
2018-07-16T13:12:28.419Z,44.60
2018-07-16T13:14:57.065Z,44.80
2018-07-16T13:17:25.667Z,44.70
2018-07-16T13:19:53.939Z,44.70
2018-07-16T13:24:50.731Z,43.90
2018-07-16T13:29:47.002Z,43.00
2018-07-16T13:32:15.471Z,42.00
2018-07-16T13:34:44.263Z,41.60
2018-07-16T13:37:13.193Z,42.20
2018-07-16T13:39:41.481Z,43.50
2018-07-16T13:42:10.010Z,43.50
2018-07-16T13:44:38.486Z,43.20
2018-07-16T13:47:07.095Z,43.30
2018-07-16T13:49:36.286Z,42.90
2018-07-16T13:52:04.696Z,42.90
2018-07-16T13:54:33.229Z,42.70
2018-07-16T13:57:01.703Z,41.90
2018-07-16T13:59:30.301Z,41.10
2018-07-16T14:01:58.734Z,40.00
2018-07-16T14:04:27.092Z,40.10
2018-07-16T14:06:55.475Z,39.60
2018-07-16T14:14:21.001Z,39.30
2018-07-16T14:16:49.286Z,39.20
2018-07-16T14:21:45.579Z,40.60
2018-07-16T14:24:14.071Z,41.20
2018-07-16T14:29:10.879Z,40.10
2018-07-16T14:31:39.539Z,40.00
2018-07-16T14:34:08.604Z,40.30
2018-07-16T14:36:36.763Z,40.00
2018-07-16T14:39:05.997Z,39.60
2018-07-16T14:41:34.317Z,40.30
2018-07-16T14:44:02.392Z,41.10
2018-07-16T14:51:27.602Z,42.30
2018-07-16T14:53:57.532Z,42.50
2018-07-16T14:56:26.713Z,42.30
2018-07-16T14:58:55.052Z,42.40
2018-07-16T15:01:23.449Z,42.60
2018-07-16T15:03:52.037Z,42.90
2018-07-16T15:08:48.658Z,43.50
2018-07-16T15:11:16.719Z,44.20
2018-07-16T15:13:45.655Z,44.60
2018-07-16T15:16:14.326Z,44.80
2018-07-16T15:18:42.759Z,45.60
2018-07-16T15:23:39.317Z,43.70
2018-07-16T15:26:07.659Z,44.10
2018-07-16T15:28:36.246Z,45.30
2018-07-16T15:33:33.775Z,45.10
2018-07-16T15:36:02.137Z,44.80
2018-07-16T15:38:30.574Z,44.50
2018-07-16T15:40:59.146Z,45.00
2018-07-16T15:43:28.319Z,43.70
2018-07-16T15:45:56.807Z,44.40
2018-07-16T15:48:25.647Z,43.90
2018-07-16T15:50:54.011Z,45.00
2018-07-16T15:53:23.228Z,44.00
2018-07-16T15:55:51.845Z,43.50
2018-07-16T15:58:20.102Z,43.80
2018-07-16T16:05:45.421Z,43.70
2018-07-16T16:08:13.829Z,43.10
2018-07-16T16:10:42.342Z,42.60
2018-07-16T16:13:11.073Z,43.40
2018-07-16T16:15:39.375Z,43.50
2018-07-16T16:18:07.852Z,43.70
2018-07-16T16:20:36.461Z,44.00
2018-07-16T16:23:04.964Z,44.30
2018-07-16T16:25:33.329Z,44.70
2018-07-16T16:30:31.461Z,45.70
2018-07-16T16:33:00.080Z,45.70
2018-07-16T16:35:28.675Z,45.50
2018-07-16T16:37:57.500Z,45.70
2018-07-16T16:40:26.005Z,45.70
2018-07-16T16:42:54.316Z,45.40
2018-07-16T16:45:23.009Z,45.50
2018-07-16T16:47:51.430Z,45.70
2018-07-16T16:50:19.684Z,45.00
2018-07-16T16:52:48.005Z,45.00
2018-07-16T16:55:16.907Z,45.70
2018-07-16T16:57:45.418Z,45.90
2018-07-16T17:00:14.009Z,46.10
2018-07-16T17:02:42.413Z,46.50
2018-07-16T17:05:10.805Z,46.80
2018-07-16T17:07:39.646Z,47.20
2018-07-16T17:10:09.033Z,47.50
2018-07-16T17:12:37.507Z,47.50
2018-07-16T17:17:33.925Z,48.00
2018-07-16T17:20:02.932Z,48.20
2018-07-16T17:29:55.516Z,47.40
2018-07-16T17:32:23.988Z,47.90
2018-07-16T17:34:53.518Z,48.10
2018-07-16T17:39:50.667Z,47.10
2018-07-16T17:42:19.751Z,46.90
2018-07-16T17:47:16.352Z,48.20
2018-07-16T17:49:46.178Z,48.40
2018-07-16T17:52:14.561Z,48.30
2018-07-16T17:54:42.953Z,48.10
2018-07-16T17:57:11.529Z,48.80
2018-07-16T17:59:40.212Z,48.20
2018-07-16T18:02:09.443Z,48.40
2018-07-16T18:04:37.794Z,48.70
2018-07-16T18:07:06.569Z,49.30
2018-07-16T18:09:35.023Z,49.80
2018-07-16T18:12:04.754Z,49.80
2018-07-16T18:14:33.151Z,50.10
2018-07-16T18:17:01.533Z,51.20
2018-07-16T18:21:58.204Z,51.10
2018-07-16T18:24:26.734Z,50.90
2018-07-16T18:26:54.954Z,52.30
2018-07-16T18:29:23.551Z,53.20
2018-07-16T18:31:52.254Z,53.90
2018-07-16T18:34:20.770Z,54.40
2018-07-16T18:36:49.132Z,55.20
2018-07-16T18:39:17.751Z,55.50
2018-07-16T18:41:46.771Z,56.00
2018-07-16T18:46:43.960Z,57.30
2018-07-16T18:51:40.998Z,58.20
2018-07-16T18:54:09.634Z,58.80
2018-07-16T18:56:37.985Z,59.30
2018-07-16T18:59:06.620Z,59.70
2018-07-16T19:01:34.886Z,60.80
2018-07-16T19:06:31.728Z,61.60
2018-07-16T19:09:00.159Z,62.30
2018-07-16T19:11:28.804Z,63.00
2018-07-16T19:13:58.627Z,63.30
2018-07-16T19:16:27.285Z,63.50
2018-07-16T19:18:55.784Z,64.10
2018-07-16T19:21:24.250Z,64.20
2018-07-16T19:23:52.829Z,64.60
2018-07-16T19:26:21.214Z,64.70
2018-07-16T19:28:49.696Z,65.20
2018-07-16T19:31:18.228Z,65.40
2018-07-16T19:36:14.536Z,65.50
2018-07-16T19:38:43.394Z,66.10
2018-07-16T19:41:11.800Z,66.30
2018-07-16T19:43:40.327Z,66.50
2018-07-16T19:48:37.639Z,67.40
2018-07-16T19:53:34.768Z,68.20
2018-07-16T19:56:03.959Z,67.70
2018-07-16T20:01:00.738Z,68.70
2018-07-16T20:03:30.497Z,68.30
2018-07-16T20:05:58.709Z,68.40
2018-07-16T20:08:27.022Z,68.80
2018-07-16T20:10:55.362Z,68.20
2018-07-16T20:13:23.880Z,68.20
2018-07-16T20:15:52.351Z,68.20
2018-07-16T20:18:21.812Z,68.20
2018-07-16T20:20:55.329Z,68.10
2018-07-16T20:23:23.848Z,68.00
2018-07-16T20:25:54.128Z,68.00
2018-07-16T20:28:23.120Z,68.40
2018-07-16T20:30:51.555Z,68.40
2018-07-16T20:33:20.884Z,68.40
2018-07-16T20:35:49.649Z,69.20
2018-07-16T20:38:18.180Z,69.40
2018-07-16T20:40:47.131Z,70.40
2018-07-16T20:43:15.563Z,71.80
2018-07-16T20:45:44.172Z,72.60
2018-07-16T20:48:13.104Z,73.70
2018-07-16T20:50:41.558Z,74.00
2018-07-16T20:53:10.709Z,74.60
2018-07-16T20:55:39.274Z,74.90
2018-07-16T20:58:07.571Z,75.70
2018-07-16T21:03:03.867Z,76.70
2018-07-16T21:05:32.767Z,77.20
2018-07-16T21:08:01.576Z,77.90
2018-07-16T21:10:30.070Z,78.60
2018-07-16T21:20:23.172Z,80.30
2018-07-16T21:22:51.880Z,80.80
2018-07-16T21:25:20.176Z,81.30
2018-07-16T21:27:48.565Z,81.80
2018-07-16T21:32:44.889Z,82.50
2018-07-16T21:35:13.056Z,83.10
2018-07-16T21:42:37.509Z,84.50
2018-07-16T21:45:06.457Z,85.70
2018-07-16T21:47:34.819Z,85.30
2018-07-16T21:50:03.225Z,85.70
2018-07-16T21:52:32.756Z,86.20
2018-07-16T21:55:01.260Z,87.60
2018-07-16T22:02:26.014Z,88.50
2018-07-16T22:04:54.357Z,89.10
2018-07-16T22:09:51.633Z,89.60
2018-07-16T22:12:19.845Z,89.50
2018-07-16T22:17:16.543Z,90.30
2018-07-16T22:22:13.439Z,90.50
2018-07-16T22:24:42.561Z,90.50
2018-07-16T22:32:07.575Z,91.10
2018-07-16T22:34:35.744Z,91.30
2018-07-16T22:37:04.243Z,91.50
2018-07-16T22:39:32.661Z,91.80
2018-07-16T22:46:57.236Z,92.50
2018-07-16T22:49:25.558Z,92.70
2018-07-16T22:51:53.738Z,92.90
2018-07-16T22:56:50.042Z,93.20
2018-07-16T22:59:18.424Z,93.20
2018-07-16T23:06:43.633Z,94.20
2018-07-16T23:09:11.706Z,93.90
2018-07-16T23:11:42.170Z,94.00
2018-07-16T23:14:10.556Z,94.50
2018-07-16T23:16:38.970Z,94.30
2018-07-16T23:21:35.369Z,94.50
2018-07-16T23:24:04.181Z,94.70
2018-07-16T23:26:32.752Z,94.80
2018-07-16T23:29:01.866Z,95.00
2018-07-16T23:36:26.497Z,95.30
2018-07-16T23:38:54.774Z,95.40
2018-07-16T23:41:24.036Z,95.60
2018-07-16T23:43:52.405Z,95.70
2018-07-16T23:46:20.700Z,95.90
2018-07-16T23:48:50.190Z,96.00
2018-07-16T23:51:18.824Z,96.40
2018-07-16T23:53:47.332Z,96.20
2018-07-16T23:56:15.620Z,96.50
2018-07-16T23:58:43.896Z,96.50
